Barbourville, Kentucky
Current Conditions -  °F | °C
As of 4:53 AM on Monday 22 Dec 2014 (Local Time) from KLOZ Reporting Station
Overcast Overcast  
Wind Chill: 37°   Ceiling: 3600
Heat Index: 40°   Visibility: 10mi
Dew Point: 32°   Wind: 5mph
Humidity: 73%   Direction: 160°SSE
Pressure: 30.01"   Gusts: NA
Location:  36.87°N, 83.89°W
Report Text: KLOZ 220953Z AUTO 16004KT 10SM OVC036 04/00 A3001 RMK AO2 SLP163 T00440000 $
Loading
Personal Weather Stations






























Interactive Weather Map New forecast layout! Learn more

10-Day Weather Forecast

Advertisements
Track Severe Weather on mobile